Terminal Aerodrome Forecast
Issued by NWS

Home | Current Version | Previous Version | Text Only | Print | Product List | Glossary Off
Versions: 1 2 3 4 5 6 7 8 9 10 11 12 13 14 15 16 17 18 19 20 21

000
FTUS43 KBIS 010156 AAA
TAFMOT
TAF AMD
KMOT 010156Z 0102/0124 00000KT 2SM FU OVC110
     FM010900 04005KT 3SM FU BKN035
     FM011500 34007KT 5SM FU BKN050=

USA.gov is the U.S. government's official web portal to all federal, state and local government web resources and services.